createdAt,value
2018-09-10T00:09:24.021Z,16.80
2018-09-10T00:12:03.113Z,16.60
2018-09-10T00:14:51.093Z,16.50
2018-09-10T00:17:30.340Z,16.40
2018-09-10T00:20:07.561Z,16.40
2018-09-10T00:22:44.480Z,16.30
2018-09-10T00:25:25.258Z,16.30
2018-09-10T00:28:05.504Z,16.30
2018-09-10T00:30:43.552Z,16.20
2018-09-10T00:33:20.119Z,16.20
2018-09-10T00:35:56.601Z,16.10
2018-09-10T00:38:39.503Z,16.10
2018-09-10T00:41:15.735Z,16.00
2018-09-10T00:44:09.375Z,16.00
2018-09-10T00:46:55.328Z,15.90
2018-09-10T00:53:10.663Z,15.80
2018-09-10T00:59:11.249Z,15.80
2018-09-10T01:04:46.469Z,15.70
2018-09-10T01:11:02.558Z,15.70
2018-09-10T01:17:24.793Z,15.70
2018-09-10T01:20:09.335Z,15.60
2018-09-10T01:22:55.486Z,15.60
2018-09-10T01:25:42.167Z,15.50
2018-09-10T01:28:22.882Z,15.50
2018-09-10T01:34:44.845Z,15.40
2018-09-10T01:37:33.856Z,15.40
2018-09-10T01:56:33.526Z,15.30
2018-09-10T02:36:46.416Z,15.10
2018-09-10T02:39:36.536Z,15.10
2018-09-10T03:39:55.413Z,14.50
2018-09-10T03:49:10.890Z,14.50
2018-09-10T03:55:23.074Z,14.40
2018-09-10T03:58:16.144Z,14.40
2018-09-10T04:01:10.282Z,14.30
2018-09-10T04:06:53.954Z,14.20
2018-09-10T04:13:25.430Z,14.10
2018-09-10T04:16:22.756Z,14.10
2018-09-10T04:22:20.768Z,14.00
2018-09-10T04:28:05.643Z,14.00
2018-09-10T04:30:53.159Z,14.00
2018-09-10T04:33:42.180Z,14.00
2018-09-10T04:36:28.605Z,14.00
2018-09-10T04:39:11.492Z,14.00
2018-09-10T04:53:48.394Z,14.00
2018-09-10T05:00:07.228Z,14.00
2018-09-10T05:03:04.867Z,14.00
2018-09-10T05:12:31.504Z,14.00
2018-09-10T05:15:06.818Z,14.10
2018-09-10T05:17:41.471Z,14.10
2018-09-10T05:20:21.046Z,14.20
2018-09-10T05:23:08.873Z,14.20
2018-09-10T05:28:59.928Z,14.40
2018-09-10T05:31:59.768Z,14.50
2018-09-10T05:34:46.980Z,14.50
2018-09-10T05:37:45.268Z,14.60
2018-09-10T05:40:27.403Z,14.60
2018-09-10T05:43:13.254Z,14.70
2018-09-10T05:45:53.934Z,14.80
2018-09-10T05:48:45.207Z,14.90
2018-09-10T05:51:49.835Z,14.90
2018-09-10T05:54:42.887Z,15.00
2018-09-10T06:02:59.676Z,15.20
2018-09-10T06:06:01.694Z,15.40
2018-09-10T06:17:40.458Z,15.80
2018-09-10T06:20:28.768Z,15.90
2018-09-10T06:23:21.314Z,16.00
2018-09-10T06:26:02.301Z,16.10
2018-09-10T06:31:27.085Z,16.20
2018-09-10T06:33:58.016Z,16.30
2018-09-10T06:36:31.924Z,16.40
2018-09-10T06:39:10.892Z,16.50
2018-09-10T06:41:41.751Z,16.50
2018-09-10T06:44:16.942Z,16.60
2018-09-10T06:46:46.947Z,16.70
2018-09-10T06:49:19.226Z,16.70
2018-09-10T06:51:50.167Z,16.70
2018-09-10T06:54:22.397Z,16.80
2018-09-10T06:57:00.083Z,16.90
2018-09-10T06:59:51.511Z,16.90
2018-09-10T07:02:26.123Z,17.00
2018-09-10T07:25:21.549Z,17.60
2018-09-10T07:28:01.899Z,17.70
2018-09-10T07:30:38.740Z,17.90
2018-09-10T07:33:24.882Z,17.90
2018-09-10T07:36:07.196Z,18.00
2018-09-10T07:38:42.352Z,18.20
2018-09-10T07:41:22.837Z,18.30
2018-09-10T07:44:00.699Z,18.50
2018-09-10T07:46:35.207Z,18.60
2018-09-10T07:49:14.980Z,18.80
2018-09-10T07:52:05.031Z,18.90
2018-09-10T07:54:53.596Z,19.10
2018-09-10T08:03:30.667Z,19.60
2018-09-10T08:12:13.914Z,20.00
2018-09-10T08:58:37.467Z,23.00
2018-09-10T09:01:13.827Z,23.20
2018-09-10T09:03:50.431Z,23.40
2018-09-10T09:12:16.512Z,23.90
2018-09-10T09:15:23.960Z,24.00
2018-09-10T09:17:59.603Z,24.20
2018-09-10T09:20:48.515Z,24.40
2018-09-10T09:26:34.014Z,24.80
2018-09-10T09:30:03.626Z,25.00
2018-09-10T09:32:39.163Z,25.20
2018-09-10T09:35:32.009Z,25.40
2018-09-10T09:41:10.251Z,25.70
2018-09-10T09:43:53.040Z,26.00
2018-09-10T09:49:39.409Z,26.40
2018-09-10T09:52:39.438Z,26.60
2018-09-10T09:55:35.228Z,26.80
2018-09-10T10:08:02.766Z,27.20
2018-09-10T10:14:32.130Z,28.20
2018-09-10T10:24:25.695Z,28.60
2018-09-10T11:59:18.498Z,31.90
2018-09-10T12:01:56.577Z,31.90
2018-09-10T12:04:40.159Z,31.80
2018-09-10T12:07:23.612Z,31.90
2018-09-10T12:27:09.547Z,34.60
2018-09-10T12:35:26.828Z,36.60
2018-09-10T12:41:25.623Z,37.50
2018-09-10T12:54:38.134Z,36.20
2018-09-10T13:00:23.842Z,35.30
2018-09-10T13:03:35.625Z,35.60
2018-09-10T13:06:32.777Z,35.90
2018-09-10T13:49:07.394Z,38.20
2018-09-10T13:51:43.723Z,43.00
2018-09-10T13:54:22.623Z,42.80
2018-09-10T14:10:57.267Z,42.30
2018-09-10T14:13:56.209Z,40.40
2018-09-10T14:35:36.395Z,37.50
2018-09-10T14:38:08.341Z,34.50
2018-09-10T14:40:37.742Z,33.90
2018-09-10T14:43:08.170Z,33.40
2018-09-10T14:45:40.779Z,33.00
2018-09-10T14:48:10.534Z,32.70
2018-09-10T14:50:39.683Z,32.30
2018-09-10T14:53:08.675Z,32.20
2018-09-10T14:55:37.510Z,32.00
2018-09-10T14:58:07.438Z,31.80
2018-09-10T15:00:36.218Z,31.60
2018-09-10T15:03:06.489Z,31.40
2018-09-10T15:05:36.317Z,31.10
2018-09-10T15:08:07.612Z,30.90
2018-09-10T15:16:24.896Z,30.70
2018-09-10T15:19:06.347Z,30.60
2018-09-10T15:21:49.924Z,30.40
2018-09-10T15:24:26.874Z,30.30
2018-09-10T15:27:07.894Z,30.20
2018-09-10T16:03:32.565Z,29.00
2018-09-10T16:42:54.159Z,28.90
2018-09-10T16:45:23.278Z,28.40
2018-09-10T16:47:53.621Z,28.40
2018-09-10T16:50:23.205Z,28.30
2018-09-10T16:52:56.304Z,28.20
2018-09-10T16:55:26.210Z,28.10
2018-09-10T16:58:00.770Z,28.00
2018-09-10T17:00:36.439Z,27.90
2018-09-10T17:03:11.500Z,27.80
2018-09-10T17:05:40.987Z,27.70
2018-09-10T17:08:22.898Z,27.60
2018-09-10T17:10:58.573Z,27.50
2018-09-10T17:13:33.055Z,27.40
2018-09-10T17:16:07.489Z,27.30
2018-09-10T17:18:37.977Z,27.20
2018-09-10T17:21:08.285Z,27.10
2018-09-10T17:23:59.272Z,27.00
2018-09-10T17:26:30.336Z,26.90
2018-09-10T17:29:03.100Z,26.70
2018-09-10T17:31:35.038Z,26.60
2018-09-10T17:37:00.856Z,26.40
2018-09-10T17:39:39.227Z,26.20
2018-09-10T17:42:23.034Z,26.20
2018-09-10T17:45:10.983Z,26.10
2018-09-10T17:47:58.395Z,26.00
2018-09-10T17:50:49.632Z,25.90
2018-09-10T17:53:36.769Z,25.90
2018-09-10T17:56:18.345Z,25.80
2018-09-10T18:42:12.662Z,25.60
2018-09-10T18:44:55.883Z,24.50
2018-09-10T18:47:29.512Z,24.50
2018-09-10T18:53:43.949Z,24.40
2018-09-10T18:56:25.533Z,24.40
2018-09-10T19:01:54.673Z,24.30
2018-09-10T19:04:35.430Z,24.30
2018-09-10T19:07:09.525Z,24.30
2018-09-10T19:09:41.477Z,24.20
2018-09-10T19:12:16.710Z,24.20
2018-09-10T19:14:52.123Z,24.20
2018-09-10T19:17:30.983Z,24.10
2018-09-10T19:20:06.441Z,24.00
2018-09-10T19:25:45.729Z,24.00
2018-09-10T19:28:33.765Z,23.90
2018-09-10T19:31:09.574Z,23.80
2018-09-10T19:33:41.837Z,23.80
2018-09-10T19:36:29.652Z,23.80
2018-09-10T19:39:09.572Z,23.70
2018-09-10T19:41:43.760Z,23.60
2018-09-10T19:44:17.113Z,23.60
2018-09-10T19:46:53.809Z,23.50
2018-09-10T19:49:33.572Z,23.50
2018-09-10T19:52:08.014Z,23.50
2018-09-10T19:54:46.341Z,23.50
2018-09-10T19:57:23.881Z,23.40
2018-09-10T19:59:59.818Z,23.40
2018-09-10T20:02:38.847Z,23.40
2018-09-10T20:05:28.393Z,23.40
2018-09-10T20:08:06.410Z,23.40
2018-09-10T20:10:44.219Z,23.30
2018-09-10T20:13:25.777Z,23.30
2018-09-10T20:18:56.903Z,23.20
2018-09-10T20:21:32.704Z,23.20
2018-09-10T20:24:12.941Z,23.20
2018-09-10T20:26:52.956Z,23.10
2018-09-10T20:29:35.416Z,23.00
2018-09-10T20:32:45.863Z,23.00
2018-09-10T20:35:25.275Z,23.00
2018-09-10T20:38:09.260Z,23.00
2018-09-10T20:40:49.834Z,22.90
2018-09-10T20:43:25.227Z,22.90
2018-09-10T20:46:01.904Z,22.90
2018-09-10T20:48:43.635Z,22.90
2018-09-10T20:51:23.926Z,22.90
2018-09-10T20:54:06.089Z,22.80
2018-09-10T20:56:48.083Z,22.80
2018-09-10T20:59:25.963Z,22.80
2018-09-10T21:02:09.770Z,22.80
2018-09-10T21:04:51.545Z,22.80
2018-09-10T21:07:33.257Z,22.70
2018-09-10T21:10:14.684Z,22.70
2018-09-10T21:13:00.256Z,22.60
2018-09-10T21:15:43.814Z,22.60
2018-09-10T21:18:22.586Z,22.60
2018-09-10T21:21:06.585Z,22.60
2018-09-10T21:26:41.056Z,22.60
2018-09-10T21:29:16.875Z,22.50
2018-09-10T21:32:07.795Z,22.50
2018-09-10T21:34:51.116Z,22.50
2018-09-10T21:37:29.414Z,22.40
2018-09-10T21:40:29.251Z,22.40
2018-09-10T21:43:07.446Z,22.30
2018-09-10T21:45:48.753Z,22.30
2018-09-10T21:48:29.151Z,22.20
2018-09-10T21:54:07.942Z,22.20
2018-09-10T21:59:39.946Z,22.20
2018-09-10T22:02:29.224Z,22.20
2018-09-10T22:05:13.563Z,22.10
2018-09-10T22:07:50.860Z,22.10
2018-09-10T22:13:33.533Z,22.10
2018-09-10T22:16:16.065Z,22.00
2018-09-10T22:18:50.562Z,22.00
2018-09-10T22:21:24.443Z,22.00
2018-09-10T22:24:01.986Z,22.00
2018-09-10T22:26:47.802Z,22.00
2018-09-10T22:29:22.423Z,21.90
2018-09-10T22:31:58.869Z,21.90
2018-09-10T22:34:32.309Z,22.00
2018-09-10T22:37:13.625Z,21.90
2018-09-10T22:42:32.545Z,21.90
2018-09-10T22:45:20.089Z,21.90
2018-09-10T22:47:57.914Z,21.90
2018-09-10T22:50:30.748Z,21.90
2018-09-10T22:53:03.870Z,21.90
2018-09-10T22:55:37.679Z,21.80
2018-09-10T22:58:10.763Z,21.80
2018-09-10T23:00:44.611Z,21.80
2018-09-10T23:03:18.393Z,21.70
2018-09-10T23:05:59.229Z,21.70
2018-09-10T23:08:31.950Z,21.70
2018-09-10T23:11:23.481Z,21.70
2018-09-10T23:14:01.364Z,21.70
2018-09-10T23:16:47.080Z,21.70
2018-09-10T23:19:26.233Z,21.70
2018-09-10T23:22:02.980Z,21.70
2018-09-10T23:24:39.675Z,21.60
2018-09-10T23:27:14.594Z,21.70
2018-09-10T23:29:47.449Z,21.70
2018-09-10T23:32:22.285Z,21.70
2018-09-10T23:34:57.889Z,21.60
2018-09-10T23:37:31.955Z,21.60
2018-09-10T23:40:07.465Z,21.60
2018-09-10T23:48:50.759Z,21.60
2018-09-10T23:51:23.631Z,21.60
2018-09-10T23:53:57.885Z,21.50
2018-09-10T23:56:35.515Z,21.50
2018-09-10T23:59:08.738Z,21.50
